createdAt,value
2023-02-25T00:01:35.844Z,5.23
2023-02-25T00:04:02.649Z,5.87
2023-02-25T00:06:29.431Z,5.27
2023-02-25T00:08:56.387Z,6.83
2023-02-25T00:11:24.793Z,5.37
2023-02-25T00:13:52.124Z,6.07
2023-02-25T00:16:21.106Z,6.00
2023-02-25T00:18:48.978Z,5.33
2023-02-25T00:21:16.846Z,5.00
2023-02-25T00:23:48.420Z,5.73
2023-02-25T00:26:16.767Z,4.60
2023-02-25T00:28:44.284Z,4.27
2023-02-25T00:31:16.416Z,4.80
2023-02-25T00:33:43.580Z,4.97
2023-02-25T00:36:13.650Z,5.10
2023-02-25T00:38:40.823Z,4.03
2023-02-25T00:41:11.956Z,4.90
2023-02-25T00:43:42.782Z,6.60
2023-02-25T00:46:10.763Z,6.07
2023-02-25T00:48:38.157Z,5.53
2023-02-25T00:51:12.761Z,5.50
2023-02-25T00:53:39.868Z,4.50
2023-02-25T00:56:08.008Z,4.43
2023-02-25T00:58:41.099Z,5.03
2023-02-25T01:01:19.057Z,4.33
2023-02-25T01:03:45.934Z,7.47
2023-02-25T01:06:13.037Z,7.60
2023-02-25T01:08:40.220Z,7.10
2023-02-25T01:11:21.126Z,8.70
2023-02-25T01:13:49.166Z,9.07
2023-02-25T01:16:18.406Z,7.47
2023-02-25T01:18:46.462Z,9.57
2023-02-25T01:21:22.485Z,9.87
2023-02-25T01:23:49.539Z,7.97
2023-02-25T01:26:16.352Z,8.70
2023-02-25T01:28:43.019Z,8.57
2023-02-25T01:31:19.000Z,7.37
2023-02-25T01:33:46.208Z,5.97
2023-02-25T01:36:12.851Z,4.07
2023-02-25T01:38:39.518Z,4.80
2023-02-25T01:41:06.356Z,3.37
2023-02-25T01:43:33.054Z,5.13
2023-02-25T01:45:59.802Z,3.20
2023-02-25T01:48:31.144Z,2.50
2023-02-25T01:51:03.133Z,3.90
2023-02-25T01:53:48.399Z,0.53
2023-02-25T01:56:17.542Z,0.37
2023-02-25T01:58:44.549Z,0.90
2023-02-25T02:01:13.136Z,0.20
2023-02-25T02:03:40.589Z,0.23
2023-02-25T02:06:18.207Z,0.20
2023-02-25T02:08:45.753Z,1.10
2023-02-25T02:11:12.519Z,3.10
2023-02-25T02:13:43.395Z,2.00
2023-02-25T02:16:38.341Z,0.73
2023-02-25T02:19:16.612Z,0.70
2023-02-25T02:22:00.823Z,0.50
2023-02-25T02:24:46.154Z,0.80
2023-02-25T02:27:31.728Z,0.30
2023-02-25T02:30:13.801Z,0.20
2023-02-25T02:32:53.616Z,0.20
2023-02-25T02:35:41.286Z,0.20
2023-02-25T02:38:16.959Z,0.40
2023-02-25T02:40:53.208Z,0.20
2023-02-25T02:43:42.453Z,0.20
2023-02-25T02:46:16.215Z,0.30
2023-02-25T02:48:56.789Z,0.30
2023-02-25T02:51:35.758Z,0.30
2023-02-25T02:54:06.003Z,0.40
2023-02-25T02:56:35.736Z,0.20
2023-02-25T02:59:05.848Z,0.20
2023-02-25T03:01:42.069Z,0.10
2023-02-25T03:04:12.409Z,0.10
2023-02-25T03:06:44.619Z,0.20
2023-02-25T03:09:20.732Z,0.10
2023-02-25T03:11:47.473Z,0.17
2023-02-25T03:14:14.682Z,0.10
2023-02-25T03:16:43.358Z,0.20
2023-02-25T03:19:19.270Z,0.20
2023-02-25T03:21:49.578Z,0.20
2023-02-25T03:24:23.130Z,0.20
2023-02-25T03:26:51.145Z,0.10
2023-02-25T03:29:20.690Z,0.10
2023-02-25T03:32:05.148Z,0.20
2023-02-25T03:34:44.972Z,0.20
2023-02-25T03:37:15.087Z,0.10
2023-02-25T03:39:46.300Z,0.20
2023-02-25T03:42:17.256Z,0.20
2023-02-25T03:44:50.325Z,0.10
2023-02-25T03:47:18.402Z,0.20
2023-02-25T03:49:59.310Z,0.20
2023-02-25T03:52:27.168Z,0.20
2023-02-25T03:54:57.434Z,0.20
2023-02-25T03:57:26.532Z,0.20
2023-02-25T03:59:56.645Z,0.10
2023-02-25T04:02:28.571Z,0.20
2023-02-25T04:04:55.405Z,0.10
2023-02-25T04:07:22.141Z,0.20
2023-02-25T04:09:48.926Z,0.20
2023-02-25T04:12:15.749Z,0.20
2023-02-25T04:14:42.479Z,0.10
2023-02-25T04:17:12.239Z,0.20
2023-02-25T04:19:39.042Z,0.20
2023-02-25T04:22:08.127Z,0.20
2023-02-25T04:24:34.863Z,0.30
2023-02-25T04:27:02.629Z,0.20
2023-02-25T04:29:29.940Z,0.10
2023-02-25T04:31:57.448Z,0.20
2023-02-25T04:34:24.586Z,0.20
2023-02-25T04:36:51.868Z,1.20
2023-02-25T04:39:19.323Z,0.40
2023-02-25T04:41:46.082Z,0.60
2023-02-25T04:44:12.995Z,0.30
2023-02-25T04:46:42.152Z,0.20
2023-02-25T04:49:12.308Z,0.20
2023-02-25T04:51:39.535Z,0.10
2023-02-25T04:54:06.451Z,0.20
2023-02-25T04:56:33.131Z,0.20
2023-02-25T04:58:59.870Z,0.20
2023-02-25T05:01:26.704Z,0.10
2023-02-25T05:03:57.125Z,0.20
2023-02-25T05:06:28.298Z,0.20
2023-02-25T05:08:57.677Z,0.20
2023-02-25T05:11:26.212Z,0.30
2023-02-25T05:13:53.285Z,0.20
2023-02-25T05:16:20.266Z,0.10
2023-02-25T05:18:47.846Z,0.10
2023-02-25T05:21:17.519Z,0.20
2023-02-25T05:23:45.539Z,0.20
2023-02-25T05:26:13.937Z,0.20
2023-02-25T05:28:40.692Z,0.10
2023-02-25T05:31:08.794Z,0.30
2023-02-25T05:33:39.938Z,0.20
2023-02-25T05:36:12.591Z,0.50
2023-02-25T05:38:39.281Z,0.23
2023-02-25T05:41:06.673Z,0.30
2023-02-25T05:43:34.169Z,0.20
2023-02-25T05:46:03.247Z,0.10
2023-02-25T05:48:31.965Z,0.10
2023-02-25T05:51:05.100Z,0.20
2023-02-25T05:53:32.118Z,0.20
2023-02-25T05:55:58.954Z,0.20
2023-02-25T05:58:25.649Z,0.10
2023-02-25T06:00:52.266Z,0.20
2023-02-25T06:03:19.224Z,0.30
2023-02-25T06:05:47.887Z,0.20
2023-02-25T06:08:14.826Z,0.10
2023-02-25T06:10:41.535Z,0.20
2023-02-25T06:13:09.114Z,0.20
2023-02-25T06:15:42.400Z,0.10
2023-02-25T06:18:09.731Z,0.20
2023-02-25T06:20:36.507Z,0.20
2023-02-25T06:23:03.865Z,0.20
2023-02-25T06:25:32.239Z,0.23
2023-02-25T06:28:00.544Z,0.20
2023-02-25T06:30:28.408Z,0.20
2023-02-25T06:32:55.350Z,0.20
2023-02-25T06:35:23.563Z,0.20
2023-02-25T06:37:55.001Z,0.20
2023-02-25T06:40:21.848Z,0.30
2023-02-25T06:42:48.918Z,0.33
2023-02-25T06:45:15.829Z,0.20
2023-02-25T06:47:42.622Z,0.30
2023-02-25T06:50:09.958Z,0.20
2023-02-25T06:52:36.762Z,0.20
2023-02-25T06:55:06.845Z,0.30
2023-02-25T06:57:34.275Z,0.30
2023-02-25T07:00:00.900Z,0.40
2023-02-25T07:02:27.799Z,0.40
2023-02-25T07:04:55.201Z,0.20
2023-02-25T07:07:24.148Z,0.90
2023-02-25T07:09:50.965Z,0.30
2023-02-25T07:12:17.752Z,0.20
2023-02-25T07:14:45.467Z,0.20
2023-02-25T07:17:12.197Z,0.40
2023-02-25T07:19:38.951Z,0.40
2023-02-25T07:22:05.768Z,0.33
2023-02-25T07:24:32.724Z,0.20
2023-02-25T07:26:59.473Z,0.20
2023-02-25T07:29:26.276Z,0.70
2023-02-25T07:31:53.174Z,0.20
2023-02-25T07:34:19.958Z,0.50
2023-02-25T07:36:46.732Z,0.60
2023-02-25T07:39:13.588Z,0.97
2023-02-25T07:41:40.531Z,1.13
2023-02-25T07:44:07.593Z,0.40
2023-02-25T07:46:34.592Z,0.40
2023-02-25T07:49:02.000Z,0.37
2023-02-25T07:51:28.760Z,0.43
2023-02-25T07:53:57.599Z,0.40
2023-02-25T07:56:27.362Z,0.30
2023-02-25T07:58:54.116Z,0.27
2023-02-25T08:01:33.189Z,0.47
2023-02-25T08:04:04.367Z,0.33
2023-02-25T08:06:31.528Z,0.30
2023-02-25T08:08:58.199Z,0.50
2023-02-25T08:11:26.270Z,0.47
2023-02-25T08:13:53.818Z,0.30
2023-02-25T08:16:21.522Z,0.30
2023-02-25T08:18:48.978Z,0.33
2023-02-25T08:21:22.037Z,0.50
2023-02-25T08:23:49.394Z,0.30
2023-02-25T08:26:19.052Z,0.20
2023-02-25T08:28:46.566Z,0.20
2023-02-25T08:31:13.880Z,0.20
2023-02-25T08:33:49.586Z,0.27
2023-02-25T08:36:21.793Z,0.30
2023-02-25T08:38:50.404Z,0.20
2023-02-25T08:41:17.796Z,0.20
2023-02-25T08:43:44.478Z,0.20
2023-02-25T08:46:11.379Z,0.40
2023-02-25T08:48:38.132Z,0.23
2023-02-25T08:51:08.658Z,0.30
2023-02-25T08:53:39.651Z,0.20
2023-02-25T08:56:07.637Z,0.30
2023-02-25T08:58:34.617Z,0.30
2023-02-25T09:01:01.537Z,0.20
2023-02-25T09:03:28.669Z,0.20
2023-02-25T09:05:56.384Z,0.20
2023-02-25T09:08:23.195Z,0.30
2023-02-25T09:10:51.096Z,0.40
2023-02-25T09:13:17.996Z,0.37
2023-02-25T09:15:44.724Z,0.20
2023-02-25T09:18:11.946Z,0.20
2023-02-25T09:20:39.010Z,0.27
2023-02-25T09:23:11.645Z,0.20
2023-02-25T09:25:38.798Z,0.43
2023-02-25T09:28:05.594Z,0.20
2023-02-25T09:30:32.364Z,0.30
2023-02-25T09:32:59.133Z,0.20
2023-02-25T09:35:26.128Z,0.50
2023-02-25T09:37:52.858Z,0.20
2023-02-25T09:40:23.004Z,0.37
2023-02-25T09:43:08.334Z,0.20
2023-02-25T09:45:36.508Z,1.90
2023-02-25T09:48:14.768Z,0.60
2023-02-25T09:50:43.865Z,19.70
2023-02-25T09:53:17.028Z,46.27
2023-02-25T09:55:50.875Z,4.73
2023-02-25T09:58:33.650Z,5.93
2023-02-25T10:01:07.850Z,1.50
2023-02-25T10:04:11.608Z,0.93
2023-02-25T10:06:47.881Z,5.70
2023-02-25T10:09:37.515Z,0.40
2023-02-25T10:12:35.748Z,0.33
2023-02-25T10:15:37.644Z,0.50
2023-02-25T10:18:22.372Z,0.63
2023-02-25T10:20:51.833Z,0.30
2023-02-25T10:23:44.296Z,0.40
2023-02-25T10:26:20.109Z,0.57
2023-02-25T10:29:11.760Z,0.50
2023-02-25T10:31:39.602Z,0.30
2023-02-25T10:34:22.330Z,0.87
2023-02-25T10:36:59.910Z,0.33
2023-02-25T10:39:27.948Z,0.37
2023-02-25T10:41:54.906Z,0.77
2023-02-25T10:44:21.742Z,1.23
2023-02-25T10:46:56.135Z,0.30
2023-02-25T10:49:30.584Z,0.30
2023-02-25T10:52:18.014Z,0.50
2023-02-25T10:54:54.260Z,0.37
2023-02-25T10:57:29.135Z,0.40
2023-02-25T11:00:00.762Z,0.40
2023-02-25T11:02:41.088Z,0.70
2023-02-25T11:05:31.809Z,0.73
2023-02-25T11:07:58.604Z,0.40
2023-02-25T11:10:25.369Z,0.50
2023-02-25T11:12:54.346Z,1.07
2023-02-25T11:15:50.059Z,0.50
2023-02-25T11:18:20.241Z,0.20
2023-02-25T11:20:54.752Z,0.47
2023-02-25T11:23:28.558Z,0.43
2023-02-25T11:25:55.699Z,0.70
2023-02-25T11:28:39.831Z,0.50
2023-02-25T11:31:11.050Z,0.40
2023-02-25T11:33:41.062Z,0.47
2023-02-25T11:36:08.049Z,0.87
2023-02-25T11:38:35.945Z,0.30
2023-02-25T11:41:03.515Z,0.30
2023-02-25T11:43:39.871Z,0.63
2023-02-25T11:46:12.683Z,0.73
2023-02-25T11:48:48.607Z,0.80
2023-02-25T11:51:41.045Z,1.00
2023-02-25T11:54:14.047Z,1.20
2023-02-25T11:56:48.741Z,1.00
2023-02-25T11:59:37.296Z,0.90
2023-02-25T12:02:22.696Z,1.07
2023-02-25T12:05:13.385Z,1.67
2023-02-25T12:08:33.149Z,0.67
2023-02-25T12:11:43.237Z,0.47
2023-02-25T12:14:19.112Z,1.20
2023-02-25T12:17:10.157Z,0.73
2023-02-25T12:20:09.568Z,0.83
2023-02-25T12:22:58.036Z,0.50
2023-02-25T12:25:41.465Z,0.57
2023-02-25T12:28:27.660Z,0.80
2023-02-25T12:31:03.443Z,1.00
2023-02-25T12:33:58.077Z,1.30
2023-02-25T12:36:34.892Z,1.10
2023-02-25T12:39:27.073Z,0.87
2023-02-25T12:42:04.509Z,0.60
2023-02-25T12:44:46.756Z,1.03
2023-02-25T12:47:30.777Z,1.10
2023-02-25T12:50:27.278Z,1.47
2023-02-25T12:53:28.656Z,1.07
2023-02-25T12:56:23.083Z,0.80
2023-02-25T12:59:10.727Z,0.93
2023-02-25T13:02:02.107Z,2.03
2023-02-25T13:04:39.709Z,0.50
2023-02-25T13:07:40.459Z,0.60
2023-02-25T13:10:29.249Z,1.63
2023-02-25T13:13:19.181Z,0.70
2023-02-25T13:16:01.340Z,0.70
2023-02-25T13:18:40.511Z,0.70
2023-02-25T13:21:27.876Z,0.80
2023-02-25T13:24:15.704Z,1.03
2023-02-25T13:27:00.635Z,3.10
2023-02-25T13:29:41.531Z,2.83
2023-02-25T13:32:24.294Z,4.53
2023-02-25T13:35:16.783Z,1.30
2023-02-25T13:38:08.654Z,1.00
2023-02-25T13:40:48.456Z,0.40
2023-02-25T13:43:39.441Z,0.80
2023-02-25T13:46:40.342Z,0.30
2023-02-25T13:49:30.285Z,0.40
2023-02-25T13:52:17.721Z,0.27
2023-02-25T13:55:10.165Z,0.30
2023-02-25T13:57:58.986Z,0.40
2023-02-25T14:00:35.286Z,0.30
2023-02-25T14:03:11.076Z,0.43
2023-02-25T14:05:57.030Z,0.30
2023-02-25T14:08:30.002Z,0.53
2023-02-25T14:11:13.457Z,0.60
2023-02-25T14:14:11.204Z,0.30
2023-02-25T14:16:37.850Z,0.40
2023-02-25T14:19:13.621Z,0.40
2023-02-25T14:21:59.048Z,0.40
2023-02-25T14:24:45.079Z,0.20
2023-02-25T14:27:21.171Z,0.30
2023-02-25T14:30:05.956Z,0.33
2023-02-25T14:32:51.322Z,0.30
2023-02-25T14:35:24.180Z,0.40
2023-02-25T14:38:08.079Z,0.30
2023-02-25T14:40:42.328Z,0.23
2023-02-25T14:43:19.419Z,0.30
2023-02-25T14:45:58.954Z,0.50
2023-02-25T14:48:55.739Z,0.57
2023-02-25T14:51:40.757Z,0.20
2023-02-25T14:54:13.494Z,0.47
2023-02-25T14:56:58.855Z,0.30
2023-02-25T14:59:43.735Z,0.30
2023-02-25T15:02:22.823Z,0.50
2023-02-25T15:05:01.769Z,0.30
2023-02-25T15:08:06.076Z,0.20
2023-02-25T15:10:49.274Z,0.20
2023-02-25T15:13:46.683Z,0.30
2023-02-25T15:16:17.393Z,0.30
2023-02-25T15:19:12.076Z,0.90
2023-02-25T15:21:48.405Z,0.40
2023-02-25T15:24:27.407Z,0.30
2023-02-25T15:26:55.296Z,0.40
2023-02-25T15:29:33.915Z,0.40
2023-02-25T15:32:30.036Z,0.20
2023-02-25T15:35:08.468Z,0.60
2023-02-25T15:37:40.166Z,1.30
2023-02-25T15:40:16.174Z,0.73
2023-02-25T15:42:45.575Z,0.70
2023-02-25T15:45:48.956Z,0.70
2023-02-25T15:48:21.302Z,0.60
2023-02-25T15:50:47.919Z,0.67
2023-02-25T15:53:26.539Z,0.50
2023-02-25T15:56:05.286Z,2.00
2023-02-25T15:58:32.051Z,0.87
2023-02-25T16:01:00.687Z,1.60
2023-02-25T16:03:36.400Z,0.90
2023-02-25T16:06:07.255Z,0.40
2023-02-25T16:08:46.508Z,0.50
2023-02-25T16:11:24.326Z,0.73
2023-02-25T16:13:52.094Z,1.20
2023-02-25T16:16:19.226Z,0.60
2023-02-25T16:18:50.569Z,1.37
2023-02-25T16:21:26.626Z,1.30
2023-02-25T16:23:54.546Z,1.03
2023-02-25T16:26:44.515Z,1.37
2023-02-25T16:29:18.296Z,0.70
2023-02-25T16:32:03.672Z,2.10
2023-02-25T16:34:36.115Z,1.40
2023-02-25T16:37:11.884Z,1.67
2023-02-25T16:39:38.989Z,2.73
2023-02-25T16:42:10.981Z,1.60
2023-02-25T16:44:39.219Z,1.37
2023-02-25T16:47:27.326Z,1.67
2023-02-25T16:49:56.167Z,1.27
2023-02-25T16:52:40.514Z,1.87
2023-02-25T16:55:12.657Z,1.50
2023-02-25T16:57:39.708Z,5.63
2023-02-25T17:00:14.225Z,0.90
2023-02-25T17:03:01.631Z,3.80
2023-02-25T17:05:34.175Z,2.93
2023-02-25T17:08:05.966Z,5.93
2023-02-25T17:10:37.195Z,9.40
2023-02-25T17:13:04.469Z,4.70
2023-02-25T17:15:33.740Z,2.63
2023-02-25T17:18:06.999Z,3.90
2023-02-25T17:20:34.339Z,2.63
2023-02-25T17:23:08.135Z,3.93
2023-02-25T17:25:40.797Z,1.10
2023-02-25T17:28:08.936Z,1.50
2023-02-25T17:30:40.905Z,0.77
2023-02-25T17:33:18.852Z,1.10
2023-02-25T17:35:46.915Z,1.10
2023-02-25T17:38:17.790Z,0.40
2023-02-25T17:40:45.542Z,2.47
2023-02-25T17:43:24.500Z,0.87
2023-02-25T17:45:59.641Z,0.30
2023-02-25T17:48:32.671Z,0.30
2023-02-25T17:51:01.786Z,0.50
2023-02-25T17:53:40.543Z,0.57
2023-02-25T17:56:10.788Z,0.70
2023-02-25T17:58:37.632Z,0.80
2023-02-25T18:01:05.847Z,1.10
2023-02-25T18:03:44.600Z,1.00
2023-02-25T18:06:33.861Z,1.50
2023-02-25T18:09:03.803Z,2.13
2023-02-25T18:11:38.001Z,1.60
2023-02-25T18:14:23.241Z,1.47
2023-02-25T18:16:52.265Z,1.40
2023-02-25T18:19:27.113Z,2.03
2023-02-25T18:21:54.302Z,1.97
2023-02-25T18:24:27.842Z,1.57
2023-02-25T18:27:02.892Z,1.10
2023-02-25T18:29:30.769Z,1.17
2023-02-25T18:31:57.627Z,1.20
2023-02-25T18:34:24.506Z,1.90
2023-02-25T18:36:51.281Z,2.50
2023-02-25T18:39:19.060Z,2.17
2023-02-25T18:41:45.793Z,2.03
2023-02-25T18:44:15.861Z,1.30
2023-02-25T18:46:42.649Z,0.83
2023-02-25T18:49:09.401Z,1.23
2023-02-25T18:51:36.363Z,1.20
2023-02-25T18:54:03.180Z,0.93
2023-02-25T18:56:29.839Z,1.67
2023-02-25T18:58:57.648Z,0.40
2023-02-25T19:01:27.777Z,0.60
2023-02-25T19:03:59.438Z,0.53
2023-02-25T19:06:32.106Z,0.60
2023-02-25T19:08:58.694Z,1.00
2023-02-25T19:11:29.624Z,0.90
2023-02-25T19:13:56.370Z,0.80
2023-02-25T19:16:23.953Z,0.30
2023-02-25T19:18:51.749Z,1.30
2023-02-25T19:21:20.442Z,0.60
2023-02-25T19:23:49.462Z,1.00
2023-02-25T19:26:17.359Z,0.90
2023-02-25T19:28:44.023Z,0.73
2023-02-25T19:31:12.583Z,0.70
2023-02-25T19:33:39.474Z,0.97
2023-02-25T19:36:08.742Z,0.90
2023-02-25T19:38:35.774Z,1.43
2023-02-25T19:41:05.099Z,0.77
2023-02-25T19:43:32.687Z,0.67
2023-02-25T19:45:59.378Z,0.60
2023-02-25T19:48:26.312Z,0.90
2023-02-25T19:50:53.408Z,0.93
2023-02-25T19:53:20.425Z,1.87
2023-02-25T19:55:47.712Z,2.50
2023-02-25T19:58:15.463Z,0.90
2023-02-25T20:00:46.056Z,1.10
2023-02-25T20:03:14.080Z,0.93
2023-02-25T20:05:41.765Z,0.50
2023-02-25T20:08:09.202Z,1.40
2023-02-25T21:26:52.127Z,0.40
2023-02-25T21:29:20.399Z,8.80
2023-02-25T21:31:47.305Z,4.20
2023-02-25T21:34:14.977Z,1.20
2023-02-25T21:36:42.195Z,14.33
2023-02-25T21:39:15.351Z,12.30
2023-02-25T21:41:44.360Z,4.93
2023-02-25T21:44:12.351Z,1.63
2023-02-25T21:46:39.565Z,0.60
2023-02-25T21:49:06.285Z,0.73
2023-02-25T21:51:32.983Z,0.33
2023-02-25T21:54:01.144Z,0.50
2023-02-25T21:56:28.969Z,0.57
2023-02-25T21:58:56.955Z,0.90
2023-02-25T22:01:26.599Z,0.43
2023-02-25T22:03:54.747Z,1.07
2023-02-25T22:06:25.346Z,0.83
2023-02-25T22:08:52.888Z,0.47
2023-02-25T22:11:21.764Z,0.47
2023-02-25T22:13:49.079Z,1.23
2023-02-25T22:16:16.088Z,1.63
2023-02-25T22:18:42.920Z,0.63
2023-02-25T22:21:14.978Z,0.80
2023-02-25T22:23:43.573Z,0.60
2023-02-25T22:26:15.076Z,0.70
2023-02-25T22:28:42.860Z,0.53
2023-02-25T22:31:11.402Z,1.27
2023-02-25T22:33:38.505Z,1.03
2023-02-25T22:36:06.084Z,0.23
2023-02-25T22:38:34.877Z,0.43
2023-02-25T22:41:01.935Z,0.50
2023-02-25T22:43:29.509Z,0.50
2023-02-25T22:46:32.063Z,0.40
2023-02-25T22:48:59.141Z,0.80
2023-02-25T22:51:31.386Z,0.20
2023-02-25T22:53:58.657Z,0.20
2023-02-25T22:56:26.070Z,0.20
2023-02-25T22:58:53.477Z,0.27
2023-02-25T23:01:21.813Z,0.20
2023-02-25T23:03:48.968Z,0.30
2023-02-25T23:06:17.380Z,0.30
2023-02-25T23:08:44.667Z,0.20
2023-02-25T23:11:13.873Z,0.27
2023-02-25T23:13:47.506Z,0.20
2023-02-25T23:16:16.535Z,0.30
2023-02-25T23:18:43.590Z,0.20
2023-02-25T23:21:16.541Z,0.20
2023-02-25T23:23:43.990Z,0.60
2023-02-25T23:26:13.557Z,0.80
2023-02-25T23:28:41.141Z,0.30
2023-02-25T23:31:08.342Z,0.20
2023-02-25T23:33:35.099Z,0.30
2023-02-25T23:36:04.994Z,0.30
2023-02-25T23:38:31.685Z,0.20
2023-02-25T23:40:59.622Z,0.20
2023-02-25T23:43:26.356Z,0.20
2023-02-25T23:45:53.083Z,0.30
2023-02-25T23:48:19.800Z,0.20
2023-02-25T23:50:46.494Z,0.20
2023-02-25T23:53:13.122Z,0.20
2023-02-25T23:55:39.827Z,0.20
2023-02-25T23:58:06.452Z,0.20
